Silver Lake, New Jersey
Current Conditions -  °F | °C
As of 2:53 PM on Sunday 25 Jan 2015 (Local Time) from KFWN Reporting Station
Clear Clear  
Wind Chill: 27°   Ceiling: Unl
Heat Index: 35°   Visibility: 10mi
Dew Point:   Wind: 10mph
Humidity: 30%   Direction: 330°NNW
Pressure: 29.8"   Gusts: 18mph
Location:  41.1122°N, 74.4998°W
Report Text: KFWN 251953Z AUTO 33009G16KT 10SM CLR 02/M14 A2980 RMK AO2 SLP094 T00171144
Loading
Personal Weather Stations






























Interactive Weather Map New forecast layout! Learn more

10-Day Weather Forecast

Advertisements
Track Severe Weather on mobile